Time;durP1;ratioP1;P1;durP2;ratioP2;P2;SDS_P1;SDS_P2;PMS_P1;PMS_P2;Temp;Humidity;BMP_temperature;BMP_pressure;BME280_temperature;BME280_humidity;BME280_pressure;Samples;Min_cycle;Max_cycle;Signal;HPM_P1;HPM_P2
2023/08/20 00:02:30;;;;;;;10.52;3.70;;;;;;;16.35;100.00;102043.66;4971179;28;20054;-76
2023/08/20 00:04:58;;;;;;;7.10;3.60;;;;;;;16.34;100.00;102057.81;4968290;28;20058;-76
2023/08/20 00:07:26;;;;;;;7.28;3.28;;;;;;;16.32;100.00;102056.94;4934428;28;20428;-77
2023/08/20 00:09:54;;;;;;;9.35;4.03;;;;;;;16.29;100.00;102056.94;4953113;28;20054;-77
2023/08/20 00:12:22;;;;;;;8.50;3.63;;;;;;;16.27;100.00;102052.53;4970277;28;20054;-77
2023/08/20 00:15:06;;;;;;;9.77;3.55;;;;;;;16.25;100.00;102052.50;4970594;28;20558;-77
2023/08/20 00:17:36;;;;;;;6.22;3.53;;;;;;;16.23;100.00;102051.63;4988389;28;20415;-76
2023/08/20 00:20:10;;;;;;;6.80;3.05;;;;;;;16.22;100.00;102055.19;4967892;28;20054;-77
2023/08/20 00:22:37;;;;;;;11.10;3.33;;;;;;;16.21;100.00;102049.88;4935086;28;20046;-77
2023/08/20 00:25:06;;;;;;;10.30;3.70;;;;;;;16.20;100.00;102056.06;4967662;28;20046;-76
2023/08/20 00:27:33;;;;;;;6.70;3.55;;;;;;;16.18;100.00;102056.97;5001799;28;20046;-77
2023/08/20 00:30:01;;;;;;;6.28;3.67;;;;;;;16.16;100.00;102060.50;4999100;28;20050;-77
2023/08/20 00:32:28;;;;;;;7.90;3.22;;;;;;;16.14;100.00;102067.59;4969656;28;20050;-77
2023/08/20 00:34:56;;;;;;;6.03;3.35;;;;;;;16.12;100.00;102075.59;4982377;28;20047;-77
2023/08/20 00:37:25;;;;;;;6.57;3.40;;;;;;;16.12;100.00;102080.00;4985446;28;20057;-77
2023/08/20 00:39:53;;;;;;;10.32;3.85;;;;;;;16.09;100.00;102075.59;4946176;28;20508;-77
2023/08/20 00:42:20;;;;;;;7.47;3.60;;;;;;;16.07;100.00;102080.03;4952442;28;20046;-76
2023/08/20 00:44:48;;;;;;;8.68;3.60;;;;;;;16.05;100.00;102070.25;5001362;28;20061;-77
2023/08/20 00:47:16;;;;;;;8.77;3.65;;;;;;;16.04;100.00;102085.31;4983310;28;20073;-76
2023/08/20 00:49:46;;;;;;;7.72;3.67;;;;;;;16.05;100.00;102078.22;4985725;28;20058;-77
2023/08/20 00:52:17;;;;;;;11.43;4.30;;;;;;;16.02;100.00;102076.47;5003145;28;20049;-77
2023/08/20 00:54:47;;;;;;;6.07;3.60;;;;;;;16.00;100.00;102078.25;4949474;28;20061;-77
2023/08/20 00:57:15;;;;;;;5.43;3.13;;;;;;;16.00;100.00;102082.69;4971136;28;20042;-77
2023/08/20 00:59:44;;;;;;;11.90;4.65;;;;;;;16.00;100.00;102083.56;4973605;28;20403;-77
2023/08/20 01:02:11;;;;;;;8.50;3.53;;;;;;;15.99;100.00;102076.44;4987025;28;20089;-77
2023/08/20 01:04:39;;;;;;;5.35;3.72;;;;;;;15.97;100.00;102084.44;4973128;28;20054;-77
2023/08/20 01:07:29;;;;;;;8.23;3.33;;;;;;;15.95;100.00;102085.31;5002683;28;20050;-76
2023/08/20 01:10:09;;;;;;;6.60;3.50;;;;;;;15.93;100.00;102082.66;4931101;28;20051;-76
2023/08/20 01:12:41;;;;;;;5.27;2.67;;;;;;;15.92;100.00;102082.69;4957139;28;20065;-77
2023/08/20 01:15:13;;;;;;;8.82;3.40;;;;;;;15.90;100.00;102090.66;4970259;28;20500;-76
2023/08/20 01:17:41;;;;;;;8.95;3.83;;;;;;;15.88;100.00;102091.50;4973262;28;20057;-77
2023/08/20 01:20:11;;;;;;;6.60;3.55;;;;;;;15.85;100.00;102094.19;4970386;28;20057;-76
2023/08/20 01:22:57;;;;;;;8.15;3.58;;;;;;;15.83;100.00;102087.97;4973251;28;20050;-76
2023/08/20 01:25:52;;;;;;;5.63;3.65;;;;;;;15.80;100.00;102088.84;4926768;28;20052;-76
2023/08/20 01:28:29;;;;;;;8.30;3.75;;;;;;;15.78;100.00;102085.31;4995249;28;20054;-77
2023/08/20 01:31:00;;;;;;;10.48;3.35;;;;;;;15.78;100.00;102093.28;4986723;28;20042;-76
2023/08/20 01:33:29;;;;;;;8.75;3.45;;;;;;;15.76;100.00;102095.03;4989162;28;20435;-76
2023/08/20 01:35:58;;;;;;;7.97;3.90;;;;;;;15.75;100.00;102093.28;4985726;28;20415;-76
2023/08/20 01:38:25;;;;;;;5.22;3.15;;;;;;;15.76;100.00;102103.00;5004302;28;20042;-76
2023/08/20 01:40:53;;;;;;;9.98;3.67;;;;;;;15.74;100.00;102108.31;4949158;28;20443;-76
2023/08/20 01:43:20;;;;;;;15.27;4.65;;;;;;;15.72;100.00;102110.06;4975066;28;20035;-76
2023/08/20 01:45:48;;;;;;;8.15;3.85;;;;;;;15.71;100.00;102107.44;4972172;28;20058;-76
2023/08/20 01:48:15;;;;;;;5.85;3.72;;;;;;;15.69;100.00;102114.47;4970007;28;20061;-76
2023/08/20 01:50:44;;;;;;;5.45;3.20;;;;;;;15.68;100.00;102118.03;4988517;28;20050;-76
2023/08/20 01:53:12;;;;;;;6.80;3.47;;;;;;;15.68;100.00;102126.00;4986103;28;20407;-76
2023/08/20 01:55:39;;;;;;;7.57;3.72;;;;;;;15.65;100.00;102124.25;4956213;28;20046;-76
2023/08/20 01:58:06;;;;;;;7.55;3.88;;;;;;;15.65;100.00;102131.31;4945215;28;20037;-76
2023/08/20 02:00:34;;;;;;;6.75;3.58;;;;;;;15.64;100.00;102132.22;4971776;28;20054;-77
2023/08/20 02:03:02;;;;;;;9.77;4.30;;;;;;;15.65;100.00;102136.63;4968787;28;20929;-77
2023/08/20 02:05:29;;;;;;;8.73;4.43;;;;;;;15.65;100.00;102141.94;4972170;28;20050;-77
2023/08/20 02:07:57;;;;;;;9.48;4.50;;;;;;;15.64;100.00;102134.88;4969302;28;20046;-76
2023/08/20 02:10:24;;;;;;;4.82;3.53;;;;;;;15.63;100.00;102125.09;4970882;28;20428;-77
2023/08/20 02:12:52;;;;;;;10.88;4.13;;;;;;;15.61;100.00;102130.41;4933081;28;20038;-77
2023/08/20 02:15:19;;;;;;;8.48;4.60;;;;;;;15.59;100.00;102130.44;4970208;28;20779;-77
2023/08/20 02:17:47;;;;;;;13.35;4.95;;;;;;;15.56;100.00;102130.41;4971809;28;20038;-77
2023/08/20 02:20:14;;;;;;;13.20;4.43;;;;;;;15.55;100.00;102138.38;4969344;28;20058;-77
2023/08/20 02:22:42;;;;;;;11.15;4.68;;;;;;;15.53;100.00;102135.69;4972069;28;20416;-76
2023/08/20 02:25:09;;;;;;;4.90;4.00;;;;;;;15.52;100.00;102138.34;4969073;28;20515;-76
2023/08/20 02:27:37;;;;;;;10.77;4.63;;;;;;;15.52;100.00;102143.66;4933637;28;20050;-76
2023/08/20 02:30:05;;;;;;;5.55;3.92;;;;;;;15.48;100.00;102139.22;5001251;28;20507;-76
2023/08/20 02:32:33;;;;;;;8.80;4.43;;;;;;;15.47;100.00;102134.81;4971195;28;20054;-76
2023/08/20 02:35:01;;;;;;;6.72;4.00;;;;;;;15.46;100.00;102138.34;4967963;28;20050;-76
2023/08/20 02:37:28;;;;;;;11.65;4.60;;;;;;;15.44;100.00;102140.97;4988329;28;20047;-76
2023/08/20 02:39:56;;;;;;;8.63;4.47;;;;;;;15.42;100.00;102140.09;4985164;28;20050;-76
2023/08/20 02:42:23;;;;;;;12.07;4.40;;;;;;;15.41;100.00;102135.66;4986648;28;20061;-76
2023/08/20 02:44:50;;;;;;;8.73;4.05;;;;;;;15.39;100.00;102130.34;4963792;28;20405;-76
2023/08/20 02:47:18;;;;;;;8.70;4.43;;;;;;;15.39;100.00;102126.81;4969452;28;20053;-76
2023/08/20 02:49:45;;;;;;;8.57;4.50;;;;;;;15.38;100.00;102117.94;4988533;28;20042;-76
2023/08/20 02:52:12;;;;;;;7.65;4.57;;;;;;;15.36;100.00;102124.13;4969268;28;20042;-77
2023/08/20 02:54:40;;;;;;;9.40;4.05;;;;;;;15.34;100.00;102108.19;4971068;28;20066;-77
2023/08/20 02:57:07;;;;;;;8.32;4.78;;;;;;;15.34;100.00;102105.53;4970242;28;20057;-77
2023/08/20 02:59:35;;;;;;;7.95;4.53;;;;;;;15.32;100.00;102091.38;4938441;28;20042;-76
2023/08/20 03:02:03;;;;;;;9.50;4.57;;;;;;;15.31;100.00;102086.94;4993288;28;20062;-76
2023/08/20 03:04:31;;;;;;;12.75;5.07;;;;;;;15.31;100.00;102080.72;4987121;28;20050;-76
2023/08/20 03:06:59;;;;;;;7.90;4.38;;;;;;;15.30;100.00;102084.28;4969127;28;20428;-77
2023/08/20 03:09:26;;;;;;;10.77;4.82;;;;;;;15.29;100.00;102072.78;4970603;28;20534;-77
2023/08/20 03:11:54;;;;;;;11.27;4.30;;;;;;;15.28;100.00;102078.97;4968580;28;20053;-77
2023/08/20 03:14:21;;;;;;;9.77;4.57;;;;;;;15.27;100.00;102079.81;4929913;28;21354;-77
2023/08/20 03:16:49;;;;;;;7.25;5.38;;;;;;;15.28;100.00;102092.25;5002215;28;20515;-77
2023/08/20 03:19:17;;;;;;;10.35;5.10;;;;;;;15.28;100.00;102094.03;5001585;28;20054;-77
2023/08/20 03:21:45;;;;;;;6.03;4.30;;;;;;;15.27;100.00;102089.56;4986516;28;20061;-77
2023/08/20 03:24:12;;;;;;;8.15;4.82;;;;;;;15.27;100.00;102092.22;5000857;28;20046;-77
2023/08/20 03:26:40;;;;;;;8.13;4.65;;;;;;;15.25;100.00;102081.59;4970221;28;20061;-77
2023/08/20 03:29:07;;;;;;;7.93;3.97;;;;;;;15.24;100.00;102090.47;4967362;28;20054;-77
2023/08/20 03:31:36;;;;;;;11.48;4.57;;;;;;;15.22;100.00;102086.91;4977537;28;20049;-77
2023/08/20 03:34:03;;;;;;;8.13;4.35;;;;;;;15.21;100.00;102091.31;4968323;28;20090;-76
2023/08/20 03:36:32;;;;;;;8.20;4.93;;;;;;;15.19;100.00;102092.19;4971643;28;20416;-77
2023/08/20 03:38:59;;;;;;;5.70;4.10;;;;;;;15.16;100.00;102085.13;4990021;28;20437;-77
2023/08/20 03:41:26;;;;;;;7.82;4.80;;;;;;;15.15;100.00;102083.34;4969635;28;20069;-77
2023/08/20 03:43:54;;;;;;;8.68;4.55;;;;;;;15.12;100.00;102087.75;4986216;28;20444;-77
2023/08/20 03:46:21;;;;;;;9.27;4.85;;;;;;;15.11;100.00;102100.13;4946706;28;20060;-77
2023/08/20 03:48:48;;;;;;;15.30;5.47;;;;;;;15.11;100.00;102092.19;4969614;28;20045;-76
2023/08/20 03:51:16;;;;;;;15.57;6.25;;;;;;;15.12;100.00;102093.97;4968188;28;20055;-76
2023/08/20 03:53:43;;;;;;;9.93;5.63;;;;;;;15.12;100.00;102107.25;4970016;28;20500;-76
2023/08/20 03:56:11;;;;;;;10.73;5.60;;;;;;;15.12;100.00;102101.94;4968138;28;20078;-76
2023/08/20 03:58:39;;;;;;;14.50;6.30;;;;;;;15.13;100.00;102097.50;4970030;28;20043;-77
2023/08/20 04:01:06;;;;;;;12.15;6.47;;;;;;;15.12;100.00;102096.63;4967159;28;20065;-75
2023/08/20 04:03:33;;;;;;;13.10;7.32;;;;;;;15.12;100.00;102106.31;4934653;28;20054;-76
2023/08/20 04:06:01;;;;;;;9.10;6.55;;;;;;;15.11;100.00;102109.88;4947736;28;20051;-76
2023/08/20 04:08:29;;;;;;;11.38;5.60;;;;;;;15.10;100.00;102113.41;4975360;28;20523;-77
2023/08/20 04:10:56;;;;;;;11.50;6.22;;;;;;;15.10;100.00;102108.09;4965908;28;20035;-77
2023/08/20 04:13:24;;;;;;;11.35;6.47;;;;;;;15.10;100.00;102111.63;4969508;28;20492;-77
2023/08/20 04:15:52;;;;;;;12.07;6.55;;;;;;;15.09;100.00;102107.22;4984222;28;20054;-77
2023/08/20 04:18:19;;;;;;;11.73;6.30;;;;;;;15.10;100.00;102111.63;4932990;28;20065;-77
2023/08/20 04:20:47;;;;;;;13.65;6.38;;;;;;;15.11;100.00;102113.41;4985728;28;20051;-77
2023/08/20 04:23:14;;;;;;;10.98;6.65;;;;;;;15.11;100.00;102117.84;4983529;28;20050;-76
2023/08/20 04:25:41;;;;;;;14.43;7.03;;;;;;;15.10;100.00;102127.56;4969807;28;20054;-76
2023/08/20 04:28:09;;;;;;;9.90;6.30;;;;;;;15.11;100.00;102132.00;4983132;28;20050;-76
2023/08/20 04:30:43;;;;;;;14.48;7.00;;;;;;;15.12;100.00;102139.09;5002335;28;20054;-76
2023/08/20 04:33:11;;;;;;;15.27;7.32;;;;;;;15.14;100.00;102137.34;4966480;28;20038;-76
2023/08/20 04:35:43;;;;;;;12.30;7.07;;;;;;;15.16;100.00;102138.22;4958599;28;20057;-77
2023/08/20 04:38:11;;;;;;;12.02;7.05;;;;;;;15.16;100.00;102135.56;4966566;28;20054;-77
2023/08/20 04:40:38;;;;;;;14.23;7.50;;;;;;;15.17;100.00;102134.66;4985949;28;20054;-76
2023/08/20 04:43:05;;;;;;;13.45;6.60;;;;;;;15.19;100.00;102134.69;4966170;28;20046;-76
2023/08/20 04:45:33;;;;;;;15.07;7.10;;;;;;;15.20;100.00;102142.66;4984770;28;20051;-77
2023/08/20 04:48:01;;;;;;;12.57;6.90;;;;;;;15.23;100.00;102151.53;4964938;28;20050;-77
2023/08/20 04:50:31;;;;;;;11.48;6.85;;;;;;;15.24;100.00;102148.88;4955335;28;20050;-76
2023/08/20 04:52:59;;;;;;;13.05;7.07;;;;;;;15.25;100.00;102155.06;4967991;28;20046;-76
2023/08/20 04:55:28;;;;;;;14.40;7.15;;;;;;;15.28;100.00;102155.97;4981248;28;20065;-76
2023/08/20 04:57:55;;;;;;;15.27;7.10;;;;;;;15.31;100.00;102148.03;4968094;28;20055;-77
2023/08/20 05:00:24;;;;;;;11.18;6.78;;;;;;;15.34;100.00;102149.81;4968295;28;20455;-76
2023/08/20 05:03:05;;;;;;;12.65;7.20;;;;;;;15.39;100.00;102158.69;4966421;28;20448;-77
2023/08/20 05:05:33;;;;;;;10.25;7.03;;;;;;;15.41;100.00;102159.56;4934476;28;20042;-77
2023/08/20 05:08:01;;;;;;;12.18;7.30;;;;;;;15.42;100.00;102153.38;4998692;28;20050;-77
2023/08/20 05:10:29;;;;;;;11.57;6.68;;;;;;;15.45;100.00;102156.03;4970338;28;20054;-77
2023/08/20 05:12:57;;;;;;;15.63;6.50;;;;;;;15.49;100.00;102165.78;4968115;28;20038;-76
2023/08/20 05:15:25;;;;;;;11.55;6.57;;;;;;;15.51;100.00;102164.03;4969231;28;20058;-76
2023/08/20 05:17:52;;;;;;;12.30;6.78;;;;;;;15.54;100.00;102166.72;4968725;28;20054;-78
2023/08/20 05:20:19;;;;;;;11.60;6.93;;;;;;;15.59;100.00;102162.31;4927516;28;20799;-76
2023/08/20 05:22:48;;;;;;;13.52;6.55;;;;;;;15.63;100.00;102162.31;4949214;28;20540;-76
2023/08/20 05:25:15;;;;;;;8.82;6.65;;;;;;;15.67;100.00;102170.31;4964283;28;20080;-76
2023/08/20 05:27:43;;;;;;;12.60;6.30;;;;;;;15.72;100.00;102172.97;4966297;28;20058;-76
2023/08/20 05:30:10;;;;;;;11.90;7.30;;;;;;;15.75;100.00;102171.25;4964603;28;20039;-76
2023/08/20 05:32:38;;;;;;;9.57;6.85;;;;;;;15.81;100.00;102174.81;4953024;28;20051;-76
2023/08/20 05:35:06;;;;;;;12.75;6.18;;;;;;;15.87;100.00;102172.16;4933934;28;22515;-76
2023/08/20 05:37:34;;;;;;;12.93;6.97;;;;;;;15.90;100.00;102178.38;4978227;28;20055;-76
2023/08/20 05:40:02;;;;;;;8.18;6.35;;;;;;;15.95;100.00;102173.97;4976206;28;20058;-75
2023/08/20 05:42:32;;;;;;;11.57;5.95;;;;;;;16.02;100.00;102187.25;5002527;28;20058;-76
2023/08/20 05:45:04;;;;;;;14.18;6.70;;;;;;;16.06;100.00;102183.72;4983435;28;20055;-77
2023/08/20 05:47:32;;;;;;;11.13;5.85;;;;;;;16.10;100.00;102185.47;5001675;28;20393;-76
2023/08/20 05:50:00;;;;;;;13.98;7.07;;;;;;;16.14;100.00;102179.28;4935386;28;20500;-77
2023/08/20 05:52:28;;;;;;;16.27;8.43;;;;;;;16.18;100.00;102179.31;4968458;28;20042;-77
2023/08/20 05:54:55;;;;;;;12.02;6.03;;;;;;;16.23;100.00;102187.28;4967814;28;20051;-77
2023/08/20 05:57:22;;;;;;;10.45;5.95;;;;;;;16.28;100.00;102177.53;4968865;28;20062;-77
2023/08/20 05:59:50;;;;;;;9.82;5.90;;;;;;;16.34;100.00;102174.88;4968107;28;20051;-77
2023/08/20 06:02:18;;;;;;;12.43;5.57;;;;;;;16.42;100.00;102176.66;4968726;28;20050;-77
2023/08/20 06:04:45;;;;;;;11.73;5.55;;;;;;;16.52;100.00;102170.44;4969593;28;20051;-76
2023/08/20 06:07:13;;;;;;;6.43;5.50;;;;;;;16.66;100.00;102165.13;4929291;28;20047;-77
2023/08/20 06:09:40;;;;;;;10.80;5.63;;;;;;;16.81;100.00;102174.84;4968463;28;20043;-76
2023/08/20 06:12:08;;;;;;;9.15;5.25;;;;;;;17.11;100.00;102168.63;4951230;28;20043;-77
2023/08/20 06:14:35;;;;;;;9.07;5.00;;;;;;;17.33;100.00;102180.06;4969424;28;20516;-77
2023/08/20 06:17:03;;;;;;;10.73;5.03;;;;;;;17.46;100.00;102163.13;4966912;28;20062;-77
2023/08/20 06:19:30;;;;;;;12.23;5.70;;;;;;;17.54;100.00;102165.75;4969571;28;20043;-77
2023/08/20 06:21:58;;;;;;;9.55;5.10;;;;;;;17.58;100.00;102167.53;4929389;28;20069;-76
2023/08/20 06:24:26;;;;;;;8.32;4.68;;;;;;;17.62;100.00;102171.97;4970274;28;20047;-76
2023/08/20 06:26:53;;;;;;;7.30;4.45;;;;;;;17.68;100.00;102177.25;4948143;28;20060;-76
2023/08/20 06:29:21;;;;;;;8.10;4.88;;;;;;;17.77;100.00;102172.75;4991220;28;20047;-77
2023/08/20 06:31:50;;;;;;;11.07;4.70;;;;;;;17.87;100.00;102171.84;4978660;28;20054;-77
2023/08/20 06:34:17;;;;;;;8.02;4.45;;;;;;;18.03;100.00;102172.63;4993226;28;20054;-77
2023/08/20 06:36:45;;;;;;;8.73;4.30;;;;;;;18.24;100.00;102169.81;4951653;28;20053;-76
2023/08/20 06:39:12;;;;;;;12.88;4.22;;;;;;;18.60;100.00;102161.50;4982127;28;20054;-77
2023/08/20 06:41:39;;;;;;;7.28;3.45;;;;;;;18.96;100.00;102167.41;5000971;28;20046;-76
2023/08/20 06:44:18;;;;;;;8.38;4.18;;;;;;;19.11;100.00;102171.69;4986437;28;20680;-76
2023/08/20 06:46:46;;;;;;;12.25;4.63;;;;;;;19.14;100.00;102166.31;4966809;28;20047;-76
2023/08/20 06:49:13;;;;;;;7.10;3.58;;;;;;;19.13;100.00;102172.56;4966816;28;20050;-77
2023/08/20 06:51:40;;;;;;;6.43;3.78;;;;;;;19.13;100.00;102175.22;4984995;28;20046;-77
2023/08/20 06:54:08;;;;;;;9.50;4.18;;;;;;;19.13;100.00;102169.88;4912905;28;20167;-77
2023/08/20 06:56:35;;;;;;;9.10;3.80;;;;;;;19.15;100.00;102176.09;4968604;28;20047;-77
2023/08/20 06:59:03;;;;;;;8.15;4.00;;;;;;;19.18;100.00;102181.41;4965677;28;20488;-77
2023/08/20 07:01:31;;;;;;;10.35;4.13;;;;;;;19.19;100.00;102181.41;4968864;28;20055;-77
2023/08/20 07:03:59;;;;;;;12.10;4.18;;;;;;;19.32;100.00;102186.59;4950415;28;20061;-76
2023/08/20 07:06:29;;;;;;;8.88;3.83;;;;;;;19.43;100.00;102190.91;4968205;28;20515;-77
2023/08/20 07:08:57;;;;;;;11.75;4.75;;;;;;;19.56;100.00;102190.75;4930135;28;20042;-76
2023/08/20 07:11:24;;;;;;;7.90;3.80;;;;;;;19.75;100.00;102188.75;4967678;28;20045;-76
2023/08/20 07:13:51;;;;;;;8.43;4.10;;;;;;;19.94;100.00;102184.91;4967266;28;20046;-76
2023/08/20 07:16:19;;;;;;;11.85;4.10;;;;;;;20.15;100.00;102193.50;4966586;28;20053;-76
2023/08/20 07:18:46;;;;;;;7.05;4.05;;;;;;;20.31;100.00;102186.16;4968618;28;20058;-75
2023/08/20 07:21:14;;;;;;;10.02;4.35;;;;;;;20.44;100.00;102183.22;4966710;28;20042;-76
2023/08/20 07:23:41;;;;;;;6.38;3.45;;;;;;;20.51;100.00;102183.13;4968510;28;20057;-76
2023/08/20 07:26:12;;;;;;;8.20;3.53;;;;;;;20.54;100.00;102188.44;4931727;28;20046;-76
2023/08/20 07:28:58;;;;;;;;;;;;;;;20.55;100.00;102192.88;4969070;28;20058;-75
2023/08/20 07:31:27;;;;;;;6.72;3.45;;;;;;;20.55;100.00;102195.56;4968118;28;19922;-76
2023/08/20 07:33:56;;;;;;;8.00;3.65;;;;;;;20.57;100.00;102197.28;4966673;28;20054;-76
2023/08/20 07:36:27;;;;;;;7.45;3.55;;;;;;;20.63;100.00;102189.19;4969793;28;20055;-76
2023/08/20 07:38:54;;;;;;;8.13;3.53;;;;;;;20.62;100.00;102191.88;4983349;28;20062;-77
2023/08/20 07:41:22;;;;;;;8.73;3.95;;;;;;;20.57;100.00;102194.63;4961802;28;20045;-77
2023/08/20 07:43:49;;;;;;;10.68;3.35;;;;;;;20.61;100.00;102192.81;4999307;28;20035;-76
2023/08/20 07:46:17;;;;;;;10.95;3.35;;;;;;;20.64;100.00;102192.72;4957842;28;20049;-77
2023/08/20 07:48:45;;;;;;;10.95;3.50;;;;;;;20.68;100.00;102194.47;4963857;28;20054;-76
2023/08/20 07:51:12;;;;;;;10.23;3.65;;;;;;;20.70;100.00;102197.09;4966638;28;20039;-77
2023/08/20 07:53:39;;;;;;;10.60;3.50;;;;;;;20.72;100.00;102197.94;4970446;28;20054;-76
2023/08/20 07:56:07;;;;;;;14.23;3.90;;;;;;;20.74;100.00;102197.03;4924269;28;20050;-77
2023/08/20 07:58:34;;;;;;;12.82;3.60;;;;;;;20.77;100.00;102196.09;4980947;28;20042;-77
2023/08/20 08:01:03;;;;;;;7.97;2.83;;;;;;;20.82;100.00;102199.56;4965752;28;20054;-76
2023/08/20 08:03:32;;;;;;;11.38;2.92;;;;;;;20.87;100.00;102192.34;4962866;28;20102;-77
2023/08/20 08:06:00;;;;;;;11.27;3.13;;;;;;;20.88;100.00;102194.09;4991741;28;20058;-78
2023/08/20 08:08:27;;;;;;;9.60;3.25;;;;;;;20.91;100.00;102187.81;4952540;28;20116;-77
2023/08/20 08:10:54;;;;;;;9.65;2.97;;;;;;;20.96;100.00;102188.59;4950064;28;20507;-77
2023/08/20 08:13:23;;;;;;;9.40;2.58;;;;;;;21.03;100.00;102198.28;4937790;28;20062;-78
2023/08/20 08:15:51;;;;;;;8.88;2.38;;;;;;;21.07;100.00;102191.06;4986191;28;20043;-77
2023/08/20 08:18:20;;;;;;;8.98;2.45;;;;;;;21.13;100.00;102199.00;4966674;28;20535;-77
2023/08/20 08:20:47;;;;;;;12.60;2.58;;;;;;;21.18;100.00;102191.75;4970005;28;20042;-77
2023/08/20 08:23:14;;;;;;;6.88;2.38;;;;;;;21.22;100.00;102193.44;4968769;28;20050;-77
2023/08/20 08:25:42;;;;;;;8.38;2.20;;;;;;;21.28;100.00;102192.44;4970764;28;20061;-76
2023/08/20 08:28:10;;;;;;;9.30;2.35;;;;;;;21.34;100.00;102195.91;4929738;28;20077;-77
2023/08/20 08:30:39;;;;;;;5.40;1.92;;;;;;;21.40;100.00;102202.94;4986478;28;20046;-76
2023/08/20 08:33:07;;;;;;;8.70;2.58;;;;;;;21.45;100.00;102208.22;4968651;28;20440;-77
2023/08/20 08:35:35;;;;;;;5.60;2.10;;;;;;;21.50;100.00;102207.22;4988236;28;20051;-77
2023/08/20 08:38:03;;;;;;;7.53;1.98;;;;;;;21.55;100.00;102208.00;4982639;28;20053;-76
2023/08/20 08:40:30;;;;;;;9.63;2.63;;;;;;;21.64;100.00;102217.63;4985780;28;20415;-77
2023/08/20 08:42:59;;;;;;;4.93;1.80;;;;;;;21.69;100.00;102214.88;4953111;28;20058;-77
2023/08/20 08:45:26;;;;;;;6.97;1.85;;;;;;;21.75;100.00;102210.25;4966004;28;20073;-77
2023/08/20 08:47:55;;;;;;;7.88;2.15;;;;;;;21.83;100.00;102212.75;4952866;28;20057;-77
2023/08/20 08:50:23;;;;;;;5.40;1.60;;;;;;;21.89;100.00;102214.41;4969519;28;20043;-76
2023/08/20 08:52:54;;;;;;;8.30;2.28;;;;;;;21.93;100.00;102208.97;4968544;28;20057;-76
2023/08/20 08:55:22;;;;;;;6.50;1.73;;;;;;;22.02;100.00;102217.72;4970576;28;20539;-77
2023/08/20 08:57:49;;;;;;;7.45;2.28;;;;;;;22.10;100.00;102222.00;4956691;28;20054;-76
2023/08/20 09:00:17;;;;;;;6.03;2.05;;;;;;;22.20;100.00;102225.34;4960884;28;20051;-77
2023/08/20 09:02:44;;;;;;;7.45;1.80;;;;;;;22.30;100.00;102224.22;4971358;28;20050;-77
2023/08/20 09:05:14;;;;;;;7.90;2.10;;;;;;;22.44;100.00;102220.31;4970192;28;20054;-77
2023/08/20 09:07:45;;;;;;;5.38;1.60;;;;;;;22.53;100.00;102226.38;4968446;28;20047;-77
2023/08/20 09:10:12;;;;;;;5.78;1.58;;;;;;;22.66;100.00;102217.97;4967076;28;20647;-77
2023/08/20 09:12:39;;;;;;;5.32;1.33;;;;;;;22.76;100.00;102222.22;4973370;28;20057;-77
2023/08/20 09:15:11;;;;;;;10.38;1.73;;;;;;;22.76;100.00;102223.09;4932817;28;20046;-77
2023/08/20 09:17:42;;;;;;;5.63;1.65;;;;;;;22.81;100.00;102228.31;4991623;28;20049;-78
2023/08/20 09:20:10;;;;;;;11.35;2.22;;;;;;;22.83;100.00;102221.09;4967442;28;20054;-77
2023/08/20 09:22:37;;;;;;;5.65;1.52;;;;;;;22.85;100.00;102230.00;4954717;28;20039;-77
2023/08/20 09:25:05;;;;;;;7.32;2.28;;;;;;;22.85;100.00;102227.31;4951698;28;20050;-77
2023/08/20 09:27:40;;;;;;;5.25;1.63;;;;;;;22.87;100.00;102221.91;4964076;28;20055;-77
2023/08/20 09:30:07;;;;;;;6.18;1.30;;;;;;;22.87;100.00;102228.19;4928778;28;21506;-76
2023/08/20 09:32:35;;;;;;;6.85;1.60;;;;;;;22.91;100.00;102243.31;4954973;28;20058;-76
2023/08/20 09:35:02;;;;;;;5.85;1.55;;;;;;;22.94;100.00;102229.75;4968569;28;20047;-77
2023/08/20 09:37:32;;;;;;;6.22;1.23;;;;;;;23.01;100.00;102232.31;4970790;28;20080;-78
2023/08/20 09:40:00;;;;;;;4.30;1.13;;;;;;;23.06;100.00;102243.84;4966515;28;20055;-76
2023/08/20 09:42:28;;;;;;;4.60;1.17;;;;;;;23.07;100.00;102242.94;4954651;28;20720;-77
2023/08/20 09:44:56;;;;;;;3.78;1.38;;;;;;;23.08;100.00;102240.19;4965817;28;20058;-77
2023/08/20 09:47:25;;;;;;;6.05;1.30;;;;;;;23.13;100.00;102240.94;4928898;28;20050;-77
2023/08/20 09:49:55;;;;;;;7.20;1.65;;;;;;;23.19;100.00;102234.50;4954725;28;20046;-76
2023/08/20 09:52:40;;;;;;;4.70;1.30;;;;;;;23.28;100.00;102228.00;4970221;28;20050;-77
2023/08/20 09:55:19;;;;;;;6.22;1.40;;;;;;;23.39;100.00;102238.47;4982532;28;20050;-77
2023/08/20 09:57:47;;;;;;;4.28;1.40;;;;;;;23.44;100.00;102232.03;4954869;28;20460;-78
2023/08/20 10:00:15;;;;;;;5.55;1.95;;;;;;;23.46;100.00;102219.41;4967385;28;20054;-78
2023/08/20 10:02:43;;;;;;;7.22;1.58;;;;;;;23.42;100.00;102233.88;4930190;28;20050;-78
2023/08/20 10:05:12;;;;;;;5.32;1.20;;;;;;;23.37;100.00;102226.88;4951325;28;20055;-78
2023/08/20 10:07:40;;;;;;;4.85;1.30;;;;;;;23.41;100.00;102231.22;4971384;28;20042;-77
2023/08/20 10:10:10;;;;;;;4.63;1.50;;;;;;;23.34;100.00;102233.19;4949461;28;20813;-77
2023/08/20 10:12:41;;;;;;;4.82;1.60;;;;;;;23.33;100.00;102236.84;4953974;28;20047;-78
2023/08/20 10:15:13;;;;;;;9.00;1.75;;;;;;;23.23;100.00;102241.59;4966657;28;20047;-77
2023/08/20 10:17:45;;;;;;;4.22;1.33;;;;;;;23.23;100.00;102240.69;4967594;28;20050;-78
2023/08/20 10:20:17;;;;;;;6.05;1.50;;;;;;;23.34;100.00;102233.19;4922361;28;20054;-77
2023/08/20 10:22:45;;;;;;;2.92;1.33;;;;;;;23.49;100.00;102235.44;4972115;28;20035;-78
2023/08/20 10:25:26;;;;;;;5.68;1.70;;;;;;;23.67;100.00;102233.16;4986270;28;20038;-77
2023/08/20 10:28:10;;;;;;;;;;;;;;;23.80;100.00;102234.59;4970810;28;20053;-78
2023/08/20 10:30:37;;;;;;;6.28;1.45;;;;;;;23.92;100.00;102231.50;4990573;28;20367;-77
2023/08/20 10:33:08;;;;;;;5.53;1.40;;;;;;;23.95;100.00;102233.25;4930920;28;20216;-79
2023/08/20 10:35:39;;;;;;;5.28;1.67;;;;;;;23.94;100.00;102235.03;4989451;28;20046;-78
2023/08/20 10:38:16;;;;;;;;;;;;;;;23.94;100.00;102234.16;4986452;28;20078;-77
2023/08/20 10:40:51;;;;;;;6.15;1.50;;;;;;;24.01;100.00;102235.75;4987839;28;19926;-77
2023/08/20 10:43:45;;;;;;;6.05;1.70;;;;;;;24.08;100.00;102231.94;4985201;28;20058;-77
2023/08/20 10:46:13;;;;;;;5.07;1.33;;;;;;;24.12;100.00;102230.91;4968208;28;20583;-77
2023/08/20 10:48:40;;;;;;;4.57;1.20;;;;;;;24.15;100.00;102232.59;4929286;28;20052;-79
2023/08/20 10:51:08;;;;;;;5.82;1.70;;;;;;;24.19;100.00;102231.56;4969161;28;20069;-78
2023/08/20 10:53:35;;;;;;;5.00;1.35;;;;;;;24.29;100.00;102226.75;4990603;28;20062;-77
2023/08/20 10:56:15;;;;;;;6.38;1.75;;;;;;;24.37;100.00;102222.03;4969992;28;20053;-77
2023/08/20 10:58:47;;;;;;;5.97;2.03;;;;;;;24.43;100.00;102232.59;4971456;28;20050;-77
2023/08/20 11:01:18;;;;;;;6.90;1.58;;;;;;;24.48;100.00;102222.53;4969004;28;20121;-77
2023/08/20 11:03:46;;;;;;;6.88;1.63;;;;;;;24.60;100.00;102220.41;4961619;28;20522;-77
2023/08/20 11:06:15;;;;;;;4.80;2.10;;;;;;;24.69;100.00;102222.78;4969259;28;20050;-77
2023/08/20 11:08:44;;;;;;;4.97;1.27;;;;;;;24.83;100.00;102227.69;4970742;28;20057;-77
2023/08/20 11:11:12;;;;;;;4.95;1.52;;;;;;;24.94;100.00;102230.88;4968002;28;20077;-77
2023/08/20 11:13:40;;;;;;;4.80;1.50;;;;;;;25.01;100.00;102227.06;4970213;28;20050;-77
2023/08/20 11:16:07;;;;;;;4.47;1.58;;;;;;;25.01;100.00;102227.06;4967502;28;20046;-77
2023/08/20 11:18:36;;;;;;;5.47;1.42;;;;;;;25.07;100.00;102217.84;4971854;28;20050;-77
2023/08/20 11:21:04;;;;;;;5.15;1.58;;;;;;;25.12;100.00;102223.94;4923904;28;20069;-77
2023/08/20 11:23:32;;;;;;;4.10;1.48;;;;;;;25.16;100.00;102228.31;4922173;28;20053;-77